Time;durP1;ratioP1;P1;durP2;ratioP2;P2;SDS_P1;SDS_P2;PMS_P1;PMS_P2;Temp;Humidity;BMP_temperature;BMP_pressure;BME280_temperature;BME280_humidity;BME280_pressure;Samples;Min_cycle;Max_cycle;Signal;HPM_P1;HPM_P2
2023/08/27 00:01:11;;;;;;;5.27;4.87;;;;;;;;;;5113977;28;20229;-71
2023/08/27 00:03:37;;;;;;;5.47;4.97;;;;;;;;;;5112824;28;20215;-71
2023/08/27 00:06:04;;;;;;;9.20;5.40;;;;;;;;;;5114198;28;20200;-71
2023/08/27 00:08:32;;;;;;;9.60;5.20;;;;;;;;;;5113367;28;20215;-71
2023/08/27 00:10:59;;;;;;;4.63;4.23;;;;;;;;;;5113502;28;20735;-71
2023/08/27 00:13:26;;;;;;;6.03;4.90;;;;;;;;;;5113108;28;20219;-71
2023/08/27 00:15:53;;;;;;;6.83;5.30;;;;;;;;;;5113539;28;20196;-71
2023/08/27 00:18:20;;;;;;;5.73;4.70;;;;;;;;;;5113356;28;20192;-71
2023/08/27 00:20:47;;;;;;;4.70;4.30;;;;;;;;;;5113075;28;20331;-71
2023/08/27 00:23:14;;;;;;;6.50;5.60;;;;;;;;;;5112132;28;20708;-71
2023/08/27 00:25:43;;;;;;;4.80;4.40;;;;;;;;;;5113402;28;20207;-70
2023/08/27 00:28:12;;;;;;;6.23;4.73;;;;;;;;;;5112956;28;20724;-71
2023/08/27 00:30:39;;;;;;;16.23;5.57;;;;;;;;;;5113657;28;20204;-71
2023/08/27 00:33:06;;;;;;;11.90;4.70;;;;;;;;;;5112937;28;20204;-71
2023/08/27 00:35:32;;;;;;;5.20;4.77;;;;;;;;;;5113245;28;20206;-71
2023/08/27 00:37:59;;;;;;;5.23;4.80;;;;;;;;;;5086456;28;20203;-71
2023/08/27 00:40:28;;;;;;;5.60;4.50;;;;;;;;;;5112653;28;20221;-71
2023/08/27 00:42:56;;;;;;;4.70;4.20;;;;;;;;;;5112616;28;20253;-71
2023/08/27 00:45:23;;;;;;;5.17;4.67;;;;;;;;;;5112967;28;20207;-71
2023/08/27 00:47:50;;;;;;;4.73;4.33;;;;;;;;;;5112943;28;20653;-71
2023/08/27 00:50:17;;;;;;;6.87;3.83;;;;;;;;;;5112683;28;20209;-71
2023/08/27 00:52:44;;;;;;;4.63;4.23;;;;;;;;;;5112733;28;20682;-71
2023/08/27 00:55:11;;;;;;;4.03;3.73;;;;;;;;;;5113141;28;20218;-71
2023/08/27 00:57:40;;;;;;;4.60;4.17;;;;;;;;;;5112414;28;20200;-71
2023/08/27 01:00:10;;;;;;;5.23;4.53;;;;;;;;;;5113072;28;20207;-71
2023/08/27 01:02:37;;;;;;;5.80;4.20;;;;;;;;;;5112214;28;20314;-71
2023/08/27 01:05:05;;;;;;;5.13;4.60;;;;;;;;;;5112244;28;20199;-71
2023/08/27 01:07:36;;;;;;;4.57;4.10;;;;;;;;;;5112181;28;20682;-71
2023/08/27 01:10:10;;;;;;;8.00;4.93;;;;;;;;;;5111931;28;20287;-71
2023/08/27 01:12:44;;;;;;;12.83;4.23;;;;;;;;;;5112216;28;20225;-71
2023/08/27 01:15:14;;;;;;;5.90;4.63;;;;;;;;;;5112742;28;20199;-71
2023/08/27 01:17:41;;;;;;;4.73;3.63;;;;;;;;;;5111814;28;20203;-71
2023/08/27 01:20:09;;;;;;;7.73;4.17;;;;;;;;;;5112133;28;20200;-71
2023/08/27 01:22:37;;;;;;;4.63;4.23;;;;;;;;;;5111588;28;20231;-71
2023/08/27 01:25:06;;;;;;;4.63;4.20;;;;;;;;;;5112099;28;20595;-71
2023/08/27 01:27:37;;;;;;;5.77;4.63;;;;;;;;;;5111745;28;20230;-71
2023/08/27 01:30:10;;;;;;;5.80;3.97;;;;;;;;;;5112617;28;20203;-71
2023/08/27 01:32:40;;;;;;;4.00;3.70;;;;;;;;;;5112033;28;20204;-71
2023/08/27 01:35:08;;;;;;;5.13;4.63;;;;;;;;;;5111030;28;20203;-71
2023/08/27 01:37:34;;;;;;;4.93;4.50;;;;;;;;;;5111633;28;20210;-71
2023/08/27 01:40:05;;;;;;;4.80;4.40;;;;;;;;;;5111414;28;20207;-71
2023/08/27 01:42:32;;;;;;;3.97;3.67;;;;;;;;;;5111267;28;20291;-71
2023/08/27 01:44:59;;;;;;;5.40;4.50;;;;;;;;;;5111726;28;20657;-72
2023/08/27 01:47:26;;;;;;;4.97;4.17;;;;;;;;;;5111703;28;20199;-71
2023/08/27 01:49:53;;;;;;;4.33;3.93;;;;;;;;;;5112034;28;20226;-71
2023/08/27 01:52:19;;;;;;;5.83;3.50;;;;;;;;;;5111760;28;20196;-71
2023/08/27 01:54:46;;;;;;;4.43;4.03;;;;;;;;;;5111439;28;20617;-71
2023/08/27 01:57:14;;;;;;;7.40;4.13;;;;;;;;;;5111033;28;20278;-71
2023/08/27 01:59:41;;;;;;;7.30;4.20;;;;;;;;;;5111159;28;20199;-71
2023/08/27 02:02:08;;;;;;;7.03;4.23;;;;;;;;;;5111205;28;20219;-71
2023/08/27 02:04:35;;;;;;;5.23;4.10;;;;;;;;;;5110896;28;20227;-71
2023/08/27 02:07:02;;;;;;;4.90;3.70;;;;;;;;;;5111600;28;20256;-71
2023/08/27 02:09:28;;;;;;;4.80;4.07;;;;;;;;;;5111198;28;20255;-71
2023/08/27 02:11:55;;;;;;;4.50;4.03;;;;;;;;;;5111266;28;20196;-71
2023/08/27 02:14:23;;;;;;;5.27;4.23;;;;;;;;;;5111390;28;20211;-71
2023/08/27 02:16:50;;;;;;;4.57;4.17;;;;;;;;;;5083982;28;20210;-72
2023/08/27 02:19:17;;;;;;;4.20;3.80;;;;;;;;;;5111119;28;20202;-71
2023/08/27 02:21:44;;;;;;;4.83;4.43;;;;;;;;;;5111433;28;20210;-71
2023/08/27 02:24:10;;;;;;;4.87;4.47;;;;;;;;;;5110172;28;20204;-71
2023/08/27 02:26:37;;;;;;;5.10;4.00;;;;;;;;;;5098577;28;20199;-71
2023/08/27 02:29:04;;;;;;;3.87;3.57;;;;;;;;;;5110900;28;20586;-71
2023/08/27 02:31:32;;;;;;;4.40;4.00;;;;;;;;;;5111542;28;20207;-71
2023/08/27 02:34:00;;;;;;;4.27;3.87;;;;;;;;;;5110815;28;20227;-71
2023/08/27 02:36:27;;;;;;;4.40;4.00;;;;;;;;;;5110715;28;20195;-71
2023/08/27 02:38:54;;;;;;;4.43;3.90;;;;;;;;;;5110768;28;20199;-71
2023/08/27 02:41:21;;;;;;;4.40;4.00;;;;;;;;;;5111039;28;20195;-71
2023/08/27 02:43:48;;;;;;;4.73;4.30;;;;;;;;;;5110603;28;20589;-71
2023/08/27 02:46:14;;;;;;;4.10;3.70;;;;;;;;;;5111050;28;20257;-71
2023/08/27 02:48:42;;;;;;;4.40;4.00;;;;;;;;;;5114759;28;20203;-71
2023/08/27 02:51:09;;;;;;;4.23;3.87;;;;;;;;;;5115143;28;20745;-71
2023/08/27 02:53:36;;;;;;;5.37;4.33;;;;;;;;;;5114606;28;20233;-71
2023/08/27 02:56:03;;;;;;;9.77;4.43;;;;;;;;;;5115073;28;20210;-71
2023/08/27 02:58:30;;;;;;;6.07;4.07;;;;;;;;;;5114787;28;20207;-71
2023/08/27 03:00:56;;;;;;;4.00;3.57;;;;;;;;;;5115201;28;20209;-71
2023/08/27 03:03:23;;;;;;;4.17;3.83;;;;;;;;;;5114693;28;20298;-71
2023/08/27 03:05:51;;;;;;;5.70;4.37;;;;;;;;;;5115494;28;20199;-71
2023/08/27 03:08:18;;;;;;;4.90;4.23;;;;;;;;;;5114233;28;20199;-71
2023/08/27 03:10:45;;;;;;;4.93;4.53;;;;;;;;;;5114998;28;20598;-71
2023/08/27 03:13:12;;;;;;;4.27;3.87;;;;;;;;;;5114383;28;20196;-71
2023/08/27 03:15:39;;;;;;;5.40;4.90;;;;;;;;;;5114347;28;20203;-71
2023/08/27 03:18:07;;;;;;;8.07;4.87;;;;;;;;;;5113983;28;20221;-71
2023/08/27 03:20:33;;;;;;;4.70;4.30;;;;;;;;;;5114804;28;20588;-71
2023/08/27 03:23:02;;;;;;;4.90;4.37;;;;;;;;;;5113867;28;20191;-71
2023/08/27 03:25:28;;;;;;;4.90;4.40;;;;;;;;;;5113967;28;20199;-71
2023/08/27 03:27:55;;;;;;;4.33;3.70;;;;;;;;;;5114130;28;20255;-71
2023/08/27 03:30:22;;;;;;;4.50;4.20;;;;;;;;;;5114702;28;20200;-71
2023/08/27 03:32:49;;;;;;;4.87;4.47;;;;;;;;;;5113798;28;20678;-71
2023/08/27 03:35:16;;;;;;;7.10;4.20;;;;;;;;;;5113954;28;20237;-71
2023/08/27 03:37:43;;;;;;;4.03;3.73;;;;;;;;;;5095015;28;20209;-71
2023/08/27 03:40:12;;;;;;;12.60;5.03;;;;;;;;;;5102902;28;20238;-71
2023/08/27 03:42:38;;;;;;;5.30;4.43;;;;;;;;;;5114240;28;20211;-71
2023/08/27 03:45:06;;;;;;;6.87;5.07;;;;;;;;;;5114452;28;20207;-71
2023/08/27 03:47:34;;;;;;;5.23;4.60;;;;;;;;;;5113549;28;20208;-71
2023/08/27 03:50:01;;;;;;;4.77;4.37;;;;;;;;;;5114120;28;20291;-70
2023/08/27 03:52:28;;;;;;;5.83;4.67;;;;;;;;;;5114225;28;20208;-71
2023/08/27 03:54:55;;;;;;;6.13;4.17;;;;;;;;;;5113669;28;20234;-71
2023/08/27 03:57:23;;;;;;;6.07;4.60;;;;;;;;;;5113660;28;20199;-70
2023/08/27 03:59:50;;;;;;;5.10;4.60;;;;;;;;;;5112743;28;20583;-71
2023/08/27 04:02:17;;;;;;;5.67;4.67;;;;;;;;;;5113486;28;20200;-70
2023/08/27 04:04:43;;;;;;;7.40;4.70;;;;;;;;;;5113875;28;20199;-71
2023/08/27 04:07:10;;;;;;;5.20;4.80;;;;;;;;;;5113798;28;20210;-71
2023/08/27 04:09:37;;;;;;;7.30;5.40;;;;;;;;;;5108055;28;20200;-71
2023/08/27 04:12:05;;;;;;;6.03;5.43;;;;;;;;;;5105266;28;20206;-70
2023/08/27 04:14:33;;;;;;;11.17;6.30;;;;;;;;;;5113263;28;20222;-70
2023/08/27 04:16:59;;;;;;;5.43;4.93;;;;;;;;;;5101401;28;20204;-70
2023/08/27 04:19:26;;;;;;;5.30;4.80;;;;;;;;;;5106805;28;20207;-71
2023/08/27 04:21:53;;;;;;;5.23;4.73;;;;;;;;;;5096202;28;20215;-71
2023/08/27 04:24:20;;;;;;;5.53;5.03;;;;;;;;;;5113749;28;20199;-71
2023/08/27 04:26:46;;;;;;;5.70;4.50;;;;;;;;;;5112909;28;20218;-71
2023/08/27 04:29:13;;;;;;;4.83;4.20;;;;;;;;;;5113286;28;20219;-71
2023/08/27 04:31:43;;;;;;;6.97;5.27;;;;;;;;;;5112856;28;20666;-71
2023/08/27 04:34:09;;;;;;;5.60;5.00;;;;;;;;;;5113053;28;20310;-72
2023/08/27 04:36:36;;;;;;;11.63;5.07;;;;;;;;;;5095295;28;20683;-71
2023/08/27 04:39:03;;;;;;;5.10;4.60;;;;;;;;;;5104973;28;20204;-71
2023/08/27 04:41:33;;;;;;;5.07;4.47;;;;;;;;;;5112780;28;20249;-71
2023/08/27 04:44:00;;;;;;;4.60;4.20;;;;;;;;;;5112517;28;20658;-71
2023/08/27 04:46:26;;;;;;;5.43;4.90;;;;;;;;;;5112427;28;20204;-72
2023/08/27 04:48:54;;;;;;;4.90;4.50;;;;;;;;;;5112409;28;20195;-71
2023/08/27 04:51:21;;;;;;;5.53;4.90;;;;;;;;;;5113211;28;20202;-71
2023/08/27 04:53:48;;;;;;;5.47;4.60;;;;;;;;;;5112187;28;20187;-71
2023/08/27 04:56:15;;;;;;;4.70;4.30;;;;;;;;;;5112735;28;20599;-71
2023/08/27 04:58:42;;;;;;;5.47;4.00;;;;;;;;;;5112278;28;20210;-72
2023/08/27 05:01:09;;;;;;;9.90;4.30;;;;;;;;;;5112225;28;20207;-71
2023/08/27 05:03:36;;;;;;;5.10;3.70;;;;;;;;;;5112541;28;20204;-72
2023/08/27 05:06:04;;;;;;;8.17;4.13;;;;;;;;;;5112413;28;20199;-71
2023/08/27 05:08:32;;;;;;;8.33;4.57;;;;;;;;;;5112588;28;20195;-71
2023/08/27 05:10:59;;;;;;;11.97;4.67;;;;;;;;;;5112148;28;20681;-71
2023/08/27 05:13:26;;;;;;;21.50;6.63;;;;;;;;;;5111119;28;20207;-72
2023/08/27 05:15:53;;;;;;;9.33;4.50;;;;;;;;;;5111330;28;20706;-71
2023/08/27 05:18:19;;;;;;;7.10;5.40;;;;;;;;;;5111223;28;20196;-71
2023/08/27 05:20:46;;;;;;;5.77;4.80;;;;;;;;;;5111510;28;20207;-71
2023/08/27 05:23:14;;;;;;;9.03;4.70;;;;;;;;;;5111107;28;20338;-71
2023/08/27 05:25:41;;;;;;;5.37;4.87;;;;;;;;;;5111113;28;20196;-71
2023/08/27 05:28:08;;;;;;;17.07;5.23;;;;;;;;;;5087114;28;20234;-72
2023/08/27 05:30:35;;;;;;;10.13;4.63;;;;;;;;;;5112294;28;20207;-72
2023/08/27 05:33:02;;;;;;;10.00;5.00;;;;;;;;;;5111939;28;20202;-72
2023/08/27 05:35:29;;;;;;;6.33;5.27;;;;;;;;;;5112022;28;20223;-72
2023/08/27 05:37:56;;;;;;;6.93;5.73;;;;;;;;;;5111867;28;20244;-71
2023/08/27 05:40:24;;;;;;;6.90;5.60;;;;;;;;;;5112048;28;20223;-71
2023/08/27 05:42:51;;;;;;;5.73;5.10;;;;;;;;;;5111737;28;20237;-71
2023/08/27 05:45:18;;;;;;;8.83;5.73;;;;;;;;;;5112096;28;20215;-72
2023/08/27 05:47:45;;;;;;;8.63;5.27;;;;;;;;;;5109806;28;20200;-72
2023/08/27 05:50:12;;;;;;;6.20;5.63;;;;;;;;;;5111548;28;20239;-72
2023/08/27 05:52:39;;;;;;;6.73;5.50;;;;;;;;;;5110966;28;20666;-74
2023/08/27 05:55:06;;;;;;;6.80;5.20;;;;;;;;;;5111292;28;20230;-75
2023/08/27 05:57:34;;;;;;;5.70;4.97;;;;;;;;;;5111824;28;20195;-75
2023/08/27 06:00:01;;;;;;;7.73;5.00;;;;;;;;;;5110915;28;20240;-74
2023/08/27 06:02:30;;;;;;;6.90;5.23;;;;;;;;;;5111856;28;20787;-75
2023/08/27 06:04:56;;;;;;;6.37;4.97;;;;;;;;;;5105535;28;20674;-75
2023/08/27 06:07:23;;;;;;;5.10;4.70;;;;;;;;;;5088449;28;20204;-75
2023/08/27 06:09:50;;;;;;;4.67;4.27;;;;;;;;;;5106865;28;20210;-75
2023/08/27 06:12:17;;;;;;;4.77;4.37;;;;;;;;;;5111386;28;20200;-75
2023/08/27 06:14:45;;;;;;;5.63;4.67;;;;;;;;;;5110356;28;20226;-75
2023/08/27 06:17:12;;;;;;;4.33;3.93;;;;;;;;;;5111246;28;20214;-75
2023/08/27 06:19:38;;;;;;;5.03;4.53;;;;;;;;;;5110957;28;20199;-75
2023/08/27 06:22:05;;;;;;;5.57;3.93;;;;;;;;;;5100700;28;20682;-75
2023/08/27 06:24:34;;;;;;;5.53;4.47;;;;;;;;;;5107167;28;20272;-75
2023/08/27 06:27:01;;;;;;;4.60;4.17;;;;;;;;;;5110781;28;21054;-75
2023/08/27 06:29:28;;;;;;;4.83;4.00;;;;;;;;;;5110707;28;20204;-75
2023/08/27 06:31:56;;;;;;;6.53;4.97;;;;;;;;;;5111193;28;20200;-75
2023/08/27 06:34:23;;;;;;;6.20;3.87;;;;;;;;;;5110944;28;20230;-75
2023/08/27 06:36:50;;;;;;;3.73;3.43;;;;;;;;;;5110996;28;20196;-75
2023/08/27 06:39:16;;;;;;;7.10;4.30;;;;;;;;;;5110752;28;20203;-75
2023/08/27 06:41:43;;;;;;;4.80;3.23;;;;;;;;;;5111171;28;20626;-75
2023/08/27 06:44:10;;;;;;;3.90;3.60;;;;;;;;;;5110539;28;20584;-75
2023/08/27 06:46:37;;;;;;;5.03;3.87;;;;;;;;;;5110570;28;20560;-75
2023/08/27 06:49:05;;;;;;;4.07;3.70;;;;;;;;;;5110891;28;20205;-75
2023/08/27 06:51:32;;;;;;;6.97;3.50;;;;;;;;;;5111491;28;20203;-75
2023/08/27 06:53:59;;;;;;;7.13;3.97;;;;;;;;;;5110771;28;20677;-75
2023/08/27 06:56:26;;;;;;;7.53;3.37;;;;;;;;;;5111465;28;20235;-75
2023/08/27 06:58:52;;;;;;;4.63;4.27;;;;;;;;;;5110265;28;20301;-75
2023/08/27 07:01:19;;;;;;;4.10;3.60;;;;;;;;;;5111113;28;20204;-75
2023/08/27 07:03:46;;;;;;;3.93;3.63;;;;;;;;;;5094580;28;20196;-75
2023/08/27 07:06:14;;;;;;;4.97;3.80;;;;;;;;;;5110810;28;20623;-76
2023/08/27 07:08:41;;;;;;;4.40;3.60;;;;;;;;;;5110192;28;20208;-75
2023/08/27 07:11:08;;;;;;;4.80;3.50;;;;;;;;;;5110762;28;20206;-75
2023/08/27 07:13:35;;;;;;;4.20;3.90;;;;;;;;;;5110665;28;20715;-75
2023/08/27 07:16:02;;;;;;;5.05;3.75;;;;;;;;;;5102563;28;20224;-75
2023/08/27 07:18:30;;;;;;;5.90;3.27;;;;;;;;;;5087796;28;20689;-75
2023/08/27 07:20:57;;;;;;;3.83;3.47;;;;;;;;;;5110381;28;20215;-75
2023/08/27 07:23:26;;;;;;;4.83;3.67;;;;;;;;;;5109647;28;20196;-75
2023/08/27 07:25:52;;;;;;;4.55;4.13;;;;;;;;;;5110119;28;20210;-75
2023/08/27 07:28:20;;;;;;;3.90;3.40;;;;;;;;;;5110880;28;20219;-75
2023/08/27 07:30:49;;;;;;;3.72;3.35;;;;;;;;;;5110094;28;20701;-75
2023/08/27 07:33:16;;;;;;;4.05;3.75;;;;;;;;;;5112269;28;20199;-75
2023/08/27 07:35:43;;;;;;;4.88;3.80;;;;;;;;;;5113506;28;20270;-75
2023/08/27 07:38:10;;;;;;;8.00;4.32;;;;;;;;;;5114148;28;20195;-76
2023/08/27 07:40:38;;;;;;;5.70;3.80;;;;;;;;;;5112979;28;20203;-75
2023/08/27 07:43:05;;;;;;;4.40;4.00;;;;;;;;;;5114206;28;20195;-75
2023/08/27 07:45:32;;;;;;;4.22;3.60;;;;;;;;;;5113942;28;20690;-75
2023/08/27 07:47:59;;;;;;;4.80;3.70;;;;;;;;;;5114311;28;20677;-75
2023/08/27 07:50:26;;;;;;;6.05;3.80;;;;;;;;;;5114438;28;20202;-75
2023/08/27 07:52:53;;;;;;;6.22;4.15;;;;;;;;;;5113315;28;20670;-75
2023/08/27 07:55:20;;;;;;;4.65;3.75;;;;;;;;;;5113610;28;20219;-76
2023/08/27 07:57:48;;;;;;;8.65;4.40;;;;;;;;;;5113241;28;20597;-75
2023/08/27 08:00:15;;;;;;;4.03;3.72;;;;;;;;;;5113654;28;20200;-75
2023/08/27 08:02:42;;;;;;;4.82;3.40;;;;;;;;;;5114182;28;20210;-75
2023/08/27 08:05:09;;;;;;;4.10;3.50;;;;;;;;;;5113824;28;20204;-75
2023/08/27 08:07:36;;;;;;;4.63;3.40;;;;;;;;;;5113556;28;20619;-75
2023/08/27 08:10:03;;;;;;;4.30;3.97;;;;;;;;;;5113732;28;20199;-76
2023/08/27 08:12:31;;;;;;;7.80;3.88;;;;;;;;;;5113629;28;20261;-75
2023/08/27 08:14:59;;;;;;;3.97;3.58;;;;;;;;;;5113723;28;20222;-75
2023/08/27 08:17:26;;;;;;;5.22;3.20;;;;;;;;;;5113541;28;20210;-75
2023/08/27 08:19:53;;;;;;;4.75;4.13;;;;;;;;;;5113295;28;20685;-75
2023/08/27 08:22:21;;;;;;;3.58;3.28;;;;;;;;;;5113360;28;20205;-75
2023/08/27 08:24:48;;;;;;;6.35;3.88;;;;;;;;;;5113940;28;20640;-75
2023/08/27 08:27:15;;;;;;;2.83;2.63;;;;;;;;;;5112819;28;20326;-75
2023/08/27 08:29:41;;;;;;;4.95;3.67;;;;;;;;;;5113673;28;20207;-74
2023/08/27 08:32:09;;;;;;;4.70;3.60;;;;;;;;;;5112793;28;20196;-75
2023/08/27 08:34:36;;;;;;;6.57;3.40;;;;;;;;;;5112956;28;20204;-75
2023/08/27 08:37:03;;;;;;;3.80;3.47;;;;;;;;;;5113089;28;20231;-75
2023/08/27 08:39:30;;;;;;;4.30;3.22;;;;;;;;;;5112797;28;20214;-75
2023/08/27 08:42:05;;;;;;;7.78;4.10;;;;;;;;;;5112796;28;20203;-75
2023/08/27 08:44:37;;;;;;;4.00;3.45;;;;;;;;;;5112710;28;20292;-75
2023/08/27 08:47:05;;;;;;;3.83;3.53;;;;;;;;;;5112796;28;20199;-75
2023/08/27 08:49:33;;;;;;;3.78;3.28;;;;;;;;;;5113097;28;20203;-75
2023/08/27 08:52:01;;;;;;;4.70;3.90;;;;;;;;;;5112394;28;20199;-75
2023/08/27 08:54:29;;;;;;;4.00;3.60;;;;;;;;;;5113030;28;20239;-75
2023/08/27 08:57:00;;;;;;;3.60;3.28;;;;;;;;;;5112127;28;20262;-75
2023/08/27 08:59:28;;;;;;;4.55;4.00;;;;;;;;;;5113014;28;20238;-75
2023/08/27 09:01:57;;;;;;;5.70;3.55;;;;;;;;;;5112444;28;20681;-75
2023/08/27 09:04:25;;;;;;;4.38;3.47;;;;;;;;;;5112313;28;20199;-75
2023/08/27 09:06:53;;;;;;;3.67;3.38;;;;;;;;;;5112665;28;20195;-75
2023/08/27 09:09:21;;;;;;;3.92;3.53;;;;;;;;;;5112550;28;20203;-75
2023/08/27 09:11:50;;;;;;;4.00;3.38;;;;;;;;;;5112650;28;20256;-75
2023/08/27 09:14:17;;;;;;;4.30;3.25;;;;;;;;;;5112605;28;20690;-75
2023/08/27 09:16:44;;;;;;;4.10;3.80;;;;;;;;;;5111508;28;20231;-75
2023/08/27 09:19:10;;;;;;;4.53;3.72;;;;;;;;;;5112768;28;20204;-75
2023/08/27 09:21:37;;;;;;;4.15;3.08;;;;;;;;;;5112246;28;20211;-76
2023/08/27 09:24:06;;;;;;;3.17;2.97;;;;;;;;;;5112207;28;20252;-75
2023/08/27 09:26:33;;;;;;;6.50;3.58;;;;;;;;;;5085530;28;20203;-75
2023/08/27 09:29:01;;;;;;;3.97;3.35;;;;;;;;;;5111969;28;20701;-75
2023/08/27 09:31:38;;;;;;;3.38;3.08;;;;;;;;;;5112193;28;20208;-75
2023/08/27 09:34:04;;;;;;;3.65;3.33;;;;;;;;;;5098642;28;20200;-75
2023/08/27 09:36:32;;;;;;;3.88;3.55;;;;;;;;;;5111857;28;20716;-75
2023/08/27 09:39:08;;;;;;;5.57;3.65;;;;;;;;;;5112241;28;20287;-75
2023/08/27 09:41:37;;;;;;;3.92;2.85;;;;;;;;;;5111772;28;20206;-75
2023/08/27 09:44:05;;;;;;;7.05;2.78;;;;;;;;;;5112065;28;20195;-75
2023/08/27 09:46:31;;;;;;;3.40;3.08;;;;;;;;;;5111373;28;20203;-76
2023/08/27 09:48:59;;;;;;;3.22;2.92;;;;;;;;;;5111800;28;20207;-75
2023/08/27 09:51:27;;;;;;;4.45;3.28;;;;;;;;;;5111566;28;20207;-75
2023/08/27 09:53:54;;;;;;;3.35;2.95;;;;;;;;;;5111588;28;20195;-75
2023/08/27 09:56:24;;;;;;;3.20;2.90;;;;;;;;;;5110541;28;20728;-75
2023/08/27 09:58:53;;;;;;;3.60;3.22;;;;;;;;;;5111647;28;20286;-75
2023/08/27 10:01:20;;;;;;;3.13;2.92;;;;;;;;;;5111438;28;20199;-76
2023/08/27 10:03:47;;;;;;;3.17;2.88;;;;;;;;;;5111048;28;20215;-76
2023/08/27 10:06:14;;;;;;;3.35;3.08;;;;;;;;;;5111235;28;20207;-75
2023/08/27 10:08:48;;;;;;;3.28;2.97;;;;;;;;;;5111065;28;20203;-76
2023/08/27 10:11:16;;;;;;;3.75;3.45;;;;;;;;;;5097448;28;20236;-75
2023/08/27 10:13:45;;;;;;;2.95;2.75;;;;;;;;;;5111131;28;20238;-76
2023/08/27 10:16:12;;;;;;;4.05;2.67;;;;;;;;;;5110858;28;20226;-75
2023/08/27 10:18:40;;;;;;;3.20;3.00;;;;;;;;;;5111968;28;20286;-75
2023/08/27 10:21:07;;;;;;;4.40;3.63;;;;;;;;;;5110874;28;20677;-75
2023/08/27 10:23:34;;;;;;;3.28;3.08;;;;;;;;;;5111869;28;20234;-75
2023/08/27 10:26:02;;;;;;;4.35;3.53;;;;;;;;;;5110771;28;20258;-75
2023/08/27 10:28:29;;;;;;;3.33;3.13;;;;;;;;;;5110969;28;20640;-75
2023/08/27 10:30:58;;;;;;;5.28;2.90;;;;;;;;;;5110575;28;20195;-75
2023/08/27 10:33:24;;;;;;;4.10;3.00;;;;;;;;;;5111547;28;20207;-75
2023/08/27 10:35:52;;;;;;;4.25;3.00;;;;;;;;;;5110591;28;20273;-75
2023/08/27 10:38:20;;;;;;;3.13;2.63;;;;;;;;;;5110916;28;20200;-75
2023/08/27 10:40:46;;;;;;;4.13;3.20;;;;;;;;;;5110579;28;20208;-76
2023/08/27 10:43:18;;;;;;;3.78;2.88;;;;;;;;;;5111137;28;20206;-75
2023/08/27 10:45:45;;;;;;;2.72;2.53;;;;;;;;;;5110478;28;20210;-75
2023/08/27 10:48:30;;;;;;;2.75;2.55;;;;;;;;;;5110787;28;20208;-75
2023/08/27 10:51:09;;;;;;;2.97;2.78;;;;;;;;;;5111498;28;20226;-75
2023/08/27 10:53:41;;;;;;;2.38;2.17;;;;;;;;;;5110332;28;20195;-75
2023/08/27 10:56:35;;;;;;;2.47;2.30;;;;;;;;;;5110309;28;20227;-75
2023/08/27 10:59:03;;;;;;;4.00;2.92;;;;;;;;;;5110651;28;20224;-75
2023/08/27 11:01:35;;;;;;;4.30;3.10;;;;;;;;;;5110776;28;20200;-75
2023/08/27 11:04:04;;;;;;;3.58;2.92;;;;;;;;;;5110915;28;20195;-76
2023/08/27 11:06:40;;;;;;;3.42;2.35;;;;;;;;;;5110616;28;20226;-75
2023/08/27 11:09:17;;;;;;;3.13;2.05;;;;;;;;;;5114717;28;20199;-75
2023/08/27 11:11:45;;;;;;;3.40;2.72;;;;;;;;;;5114821;28;20201;-76
2023/08/27 11:14:15;;;;;;;2.65;2.45;;;;;;;;;;5114694;28;20195;-75
2023/08/27 11:16:46;;;;;;;4.00;2.72;;;;;;;;;;5114155;28;20611;-75
2023/08/27 11:19:15;;;;;;;5.75;2.67;;;;;;;;;;5114506;28;20681;-76
2023/08/27 11:21:43;;;;;;;2.97;2.78;;;;;;;;;;5113797;28;20210;-75
2023/08/27 11:24:13;;;;;;;3.00;2.70;;;;;;;;;;5114467;28;20199;-75
2023/08/27 11:26:41;;;;;;;4.38;2.72;;;;;;;;;;5088236;28;20693;-75
2023/08/27 11:29:08;;;;;;;4.78;3.17;;;;;;;;;;5114471;28;20610;-75
2023/08/27 11:31:35;;;;;;;3.35;3.05;;;;;;;;;;5114354;28;20252;-75
2023/08/27 11:34:02;;;;;;;3.03;2.78;;;;;;;;;;5114275;28;20206;-75
2023/08/27 11:36:31;;;;;;;3.10;2.90;;;;;;;;;;5113656;28;20613;-75
2023/08/27 11:38:59;;;;;;;2.67;2.47;;;;;;;;;;5114542;28;20215;-76
2023/08/27 11:41:26;;;;;;;6.05;3.00;;;;;;;;;;5113731;28;20654;-75
2023/08/27 11:43:55;;;;;;;3.67;2.92;;;;;;;;;;5113964;28;20274;-75
2023/08/27 11:46:22;;;;;;;3.15;2.63;;;;;;;;;;5114333;28;20195;-75
2023/08/27 11:48:48;;;;;;;3.65;3.10;;;;;;;;;;5113579;28;20203;-75
2023/08/27 11:51:15;;;;;;;3.55;3.25;;;;;;;;;;5113968;28;20214;-75
2023/08/27 11:53:44;;;;;;;4.40;2.72;;;;;;;;;;5114094;28;20673;-76
2023/08/27 11:56:11;;;;;;;7.28;2.88;;;;;;;;;;5113972;28;20223;-74
2023/08/27 11:58:39;;;;;;;4.80;3.58;;;;;;;;;;5114354;28;20235;-75
2023/08/27 12:01:06;;;;;;;4.00;2.80;;;;;;;;;;5113731;28;20199;-75
2023/08/27 12:03:34;;;;;;;3.92;3.55;;;;;;;;;;5113754;28;20206;-75
2023/08/27 12:06:00;;;;;;;5.03;3.40;;;;;;;;;;5113721;28;20200;-75
2023/08/27 12:08:27;;;;;;;3.85;3.38;;;;;;;;;;5113557;28;20222;-75
2023/08/27 12:10:56;;;;;;;3.33;2.90;;;;;;;;;;5113158;28;20256;-75
2023/08/27 12:13:22;;;;;;;3.05;2.75;;;;;;;;;;5100186;28;20211;-75
2023/08/27 12:15:49;;;;;;;4.18;3.08;;;;;;;;;;5113679;28;20208;-75
2023/08/27 12:18:16;;;;;;;5.35;2.85;;;;;;;;;;5113630;28;20249;-75
2023/08/27 12:20:44;;;;;;;3.92;3.10;;;;;;;;;;5112560;28;20207;-75
2023/08/27 12:23:11;;;;;;;3.17;2.97;;;;;;;;;;5113205;28;20631;-75
2023/08/27 12:25:48;;;;;;;3.20;2.90;;;;;;;;;;5113838;28;20263;-75
2023/08/27 12:28:16;;;;;;;2.90;2.70;;;;;;;;;;5086759;28;20223;-75
2023/08/27 12:30:48;;;;;;;3.22;3.03;;;;;;;;;;5112877;28;20286;-75
2023/08/27 12:33:15;;;;;;;3.42;2.83;;;;;;;;;;5113478;28;20256;-75
2023/08/27 12:35:45;;;;;;;3.38;2.95;;;;;;;;;;5113253;28;20203;-75
2023/08/27 12:38:12;;;;;;;3.78;3.35;;;;;;;;;;5113330;28;20309;-75
2023/08/27 12:40:39;;;;;;;2.80;2.60;;;;;;;;;;5112762;28;20207;-75
2023/08/27 12:43:05;;;;;;;3.58;2.80;;;;;;;;;;5113318;28;20218;-75
2023/08/27 12:45:35;;;;;;;5.32;2.78;;;;;;;;;;5112827;28;20195;-75
2023/08/27 12:48:04;;;;;;;4.40;2.55;;;;;;;;;;5113381;28;20203;-75
2023/08/27 12:50:31;;;;;;;5.40;3.03;;;;;;;;;;5112419;28;20208;-75
2023/08/27 12:52:58;;;;;;;5.68;3.05;;;;;;;;;;5112798;28;20250;-75
2023/08/27 12:55:24;;;;;;;3.35;3.03;;;;;;;;;;5112678;28;20203;-75
2023/08/27 12:57:51;;;;;;;3.17;2.97;;;;;;;;;;5112451;28;20318;-75
2023/08/27 13:00:19;;;;;;;5.25;2.83;;;;;;;;;;5112671;28;20207;-75
2023/08/27 13:02:48;;;;;;;3.10;2.65;;;;;;;;;;5113042;28;20207;-75
2023/08/27 13:05:15;;;;;;;3.13;2.92;;;;;;;;;;5101507;28;20192;-75
2023/08/27 13:07:41;;;;;;;3.30;2.97;;;;;;;;;;5091773;28;20207;-76
2023/08/27 13:10:09;;;;;;;6.68;2.92;;;;;;;;;;5111010;28;20680;-75
2023/08/27 13:12:36;;;;;;;3.35;3.05;;;;;;;;;;5112158;28;20211;-75
2023/08/27 13:15:03;;;;;;;3.22;2.92;;;;;;;;;;5089089;28;20201;-75
2023/08/27 13:17:31;;;;;;;3.75;2.78;;;;;;;;;;5099459;28;20261;-75
2023/08/27 13:20:00;;;;;;;3.40;3.20;;;;;;;;;;5112428;28;20662;-75
2023/08/27 13:22:27;;;;;;;5.65;3.22;;;;;;;;;;5104045;28;20265;-75
2023/08/27 13:24:53;;;;;;;4.15;3.22;;;;;;;;;;5107206;28;20210;-75
2023/08/27 13:27:20;;;;;;;3.08;2.85;;;;;;;;;;5111882;28;20223;-74
2023/08/27 13:29:47;;;;;;;5.15;3.30;;;;;;;;;;5112111;28;20204;-75
2023/08/27 13:32:14;;;;;;;4.10;2.63;;;;;;;;;;5112217;28;20211;-75
2023/08/27 13:34:40;;;;;;;5.90;3.22;;;;;;;;;;5111704;28;20202;-75
2023/08/27 13:37:08;;;;;;;4.40;2.90;;;;;;;;;;5111879;28;20237;-75
2023/08/27 13:39:35;;;;;;;5.85;3.15;;;;;;;;;;5111425;28;20268;-75
2023/08/27 13:42:03;;;;;;;3.95;3.08;;;;;;;;;;5111644;28;20210;-75
2023/08/27 13:44:30;;;;;;;3.15;2.90;;;;;;;;;;5111360;28;20199;-75
2023/08/27 13:46:56;;;;;;;5.93;3.25;;;;;;;;;;5111578;28;20207;-75
2023/08/27 13:49:23;;;;;;;3.47;3.17;;;;;;;;;;5112632;28;20196;-75
2023/08/27 13:51:50;;;;;;;3.60;3.22;;;;;;;;;;5090714;28;20890;-75
2023/08/27 13:54:18;;;;;;;3.97;2.60;;;;;;;;;;5102649;28;20203;-75
2023/08/27 13:56:45;;;;;;;4.78;3.08;;;;;;;;;;5111554;28;20709;-75
2023/08/27 13:59:12;;;;;;;4.47;3.17;;;;;;;;;;5110176;28;20211;-75
2023/08/27 14:01:41;;;;;;;3.08;2.67;;;;;;;;;;5111250;28;20207;-75
2023/08/27 14:04:11;;;;;;;4.43;2.70;;;;;;;;;;5111417;28;20203;-74
2023/08/27 14:06:38;;;;;;;4.85;3.10;;;;;;;;;;5111675;28;20210;-75
2023/08/27 14:09:06;;;;;;;4.43;3.20;;;;;;;;;;5110744;28;20286;-75
2023/08/27 14:11:34;;;;;;;3.70;3.15;;;;;;;;;;5082856;28;20639;-75
2023/08/27 14:14:01;;;;;;;3.08;2.88;;;;;;;;;;5085664;28;20223;-75
2023/08/27 14:16:28;;;;;;;3.33;3.03;;;;;;;;;;5101809;28;20698;-75
2023/08/27 14:18:54;;;;;;;3.65;2.83;;;;;;;;;;5088620;28;20203;-75
2023/08/27 14:21:21;;;;;;;3.10;2.58;;;;;;;;;;5096233;28;20211;-75
2023/08/27 14:23:48;;;;;;;3.00;2.63;;;;;;;;;;5094569;28;20227;-75
2023/08/27 14:26:14;;;;;;;6.43;3.25;;;;;;;;;;5091786;28;20199;-75
2023/08/27 14:28:43;;;;;;;3.22;2.95;;;;;;;;;;5106610;28;20232;-75
2023/08/27 14:31:10;;;;;;;5.05;3.28;;;;;;;;;;5096025;28;20199;-74
2023/08/27 14:33:36;;;;;;;3.33;2.88;;;;;;;;;;5096337;28;20203;-74
2023/08/27 14:36:04;;;;;;;4.97;2.90;;;;;;;;;;5111011;28;20199;-75
2023/08/27 14:38:31;;;;;;;4.15;3.05;;;;;;;;;;5110887;28;20230;-75
2023/08/27 14:40:58;;;;;;;3.60;2.92;;;;;;;;;;5110872;28;20206;-75
2023/08/27 14:43:24;;;;;;;4.70;3.00;;;;;;;;;;5110551;28;20207;-75
2023/08/27 14:45:53;;;;;;;3.80;2.75;;;;;;;;;;5110439;28;20200;-75